Weather observations for the past three days for
Worthington, Worthington Municipal Airport
Metric (Imperial)
Date Time (cdt) Wind (kph) Vis. (km) Weather Sky Cond. Temperature (ºC) Relative Humidity Wind Chill (°C) Heat Index (°C) Pressure Precipitation (cm)
Air Dwpt 6 hour altimeter (cm) sea level (mb) 1 hr 3 hr 6 hr
Max. Min.
04 00:56 SW 19 16.09 Fair CLR 12.2 2.2 20.6 11.7 51% 75.29 1003.7
03 23:56 SW 13 16.09 Fair CLR 12.2 1.7 49% 75.36 1004.7
03 22:56 SW 17 16.09 Fair CLR 13.9 1.7 44% 75.41 1005.4
03 21:56 SW 15 16.09 Fair CLR 13.9 0.6 41% 75.49 1006.4
03 20:56 SW 17 16.09 Fair CLR 16.7 0 32% 75.49 1006.5
03 19:56 W 19 16.09 Fair CLR 19.4 -0.6 26% 75.51 1006.6
03 18:56 W 31 G 37 16.09 Fair CLR 20.6 -2.2 21.7 18.9 22% 75.51 1006.9
03 17:56 W 22 G 35 16.09 Fair CLR 21.1 0 25% 75.54 1007.2
03 16:56 W 20 G 37 16.09 Fair CLR 21.1 -1.1 23% 75.59 1007.8
03 15:56 NW 22 G 37 16.09 Fair CLR 21.1 0 25% 75.64 1008.4
03 14:56 NW 19 G 44 16.09 Fair CLR 20.6 1.1 27% 75.69 1009.0
03 13:56 NW 26 G 33 16.09 Fair CLR 19.4 2.2 32% 75.74 1009.7
03 12:56 NW 22 G 43 16.09 Fair CLR 18.9 1.1 18.9 10.6 30% 75.79 1010.4
03 11:56 N 33 G 46 16.09 Fair and Breezy CLR 17.8 2.8 37% 75.79 1010.7
03 10:56 N 31 G 44 16.09 Fair CLR 17.2 2.8 38% 75.82 1010.8
03 09:56 NW 33 G 43 16.09 Fair and Breezy CLR 16.1 3.9 44% 75.82 1010.8
03 08:56 NW 35 G 44 16.09 Fair and Breezy CLR 13.9 2.8 47% 75.79 1010.6
03 07:56 NW 33 16.09 Fair and Breezy CLR 12.2 2.2 51% 75.72 1009.6
03 06:56 NW 30 16.09 Fair CLR 10.6 1.7 14.4 7.8 54% 75.64 1008.7
03 05:56 NW 22 16.09 Fair CLR 10.6 1.7 54% 75.59 1007.9
03 04:56 W 17 16.09 Fair CLR 7.8 0.6 61% 5 75.59 1008.1
03 03:56 W 19 16.09 Fair CLR 10.6 0 48% 75.57 1007.6
03 02:56 SW 20 16.09 Fair CLR 12.2 -0.6 42% 75.59 1008.0
03 01:56 SW 33 G 48 16.09 Fair and Breezy CLR 14.4 -0.6 36% 75.57 1007.5
03 00:56 SW 24 16.09 Mostly Cloudy BKN110 13.9 0 18.3 13.9 39% 75.59 1008.0
02 23:56 S 28 16.09 A Few Clouds FEW110 13.9 -1.7 34% 75.67 1009.0
02 22:56 S 24 16.09 Fair CLR 14.4 -1.1 35% 75.69 1009.5
02 21:56 S 15 16.09 Overcast OVC100 15 -1.1 33% 75.77 1010.7
02 20:56 S 17 16.09 Fair CLR 16.1 -1.1 31% 75.82 1011.2
02 19:56 SW 22 16.09 Overcast OVC110 17.2 -1.7 28% 75.87 1011.9
02 18:56 SW 22 16.09 Mostly Cloudy BKN120 18.3 -2.2 18.9 15.6 25% 75.92 1013.0
02 17:56 SW 20 16.09 Mostly Cloudy BKN110 18.9 -1.1 26% 75.95 1013.3
02 16:56 SW 26 16.09 Fair CLR 18.3 -0.6 28% 76.05 1014.6
02 15:56 W 24 G 37 16.09 Fair CLR 18.9 -0.6 27% 76.1 1015.2
02 14:56 SW 19 G 31 16.09 Fair CLR 17.2 -1.1 29% 76.17 1016.6
02 13:56 W 22 G 30 16.09 A Few Clouds FEW075 16.7 -0.6 31% 76.25 1017.6
02 12:56 SW 19 G 33 16.09 Fair CLR 15.6 -1.1 15.6 1.7 32% 76.33 1018.5
02 11:56 W 15 G 35 16.09 Fair CLR 13.9 -1.7 34% 76.38 1019.5
02 10:56 SW 22 16.09 Fair CLR 12.2 -2.2 37% 76.43 1020.0
02 09:56 SW 24 16.09 Fair CLR 10.6 -2.2 41% 76.45 1020.4
02 08:56 SW 19 16.09 Fair CLR 8.3 -1.7 50% 6 76.5 1021.0
02 07:56 SW 19 16.09 Fair CLR 5.6 -2.2 58% 2 76.5 1021.3
02 06:56 SW 13 16.09 Fair CLR 1.7 -2.8 3.3 0.6 72% -2 76.5 1021.5
02 05:56 SW 11 16.09 Fair CLR 1.1 -3.3 73% -2 76.5 1021.5
02 04:56 SW 9 16.09 Fair CLR 1.7 -3.3 70% -1 76.53 1021.6
02 03:56 SW 9 16.09 Fair CLR 1.7 -1.1 82% -1 76.5 1021.3
02 02:56 SW 7 16.09 Fair CLR 0.6 -1.7 85% -1 76.5 1021.6
02 01:56 SW 7 16.09 Fair CLR 1.1 -2.2 79% -1 76.53 1021.8
02 00:56 S 6 16.09 Fair CLR 2.8 -2.8 9.4 1.7 67% 76.56 1021.9
01 23:56 SW 6 16.09 Fair CLR 1.7 -2.2 76% 76.53 1022.0
01 22:56 W 6 16.09 Fair CLR 2.8 -2.2 70% 76.53 1021.7
01 21:56 Calm 16.09 Fair CLR 4.4 -1.7 65% 76.53 1021.7
01 20:56 N 7 16.09 Fair CLR 6.7 -2.8 51% 6 76.48 1021.1
01 19:56 N 17 16.09 Fair CLR 8.9 -3.9 41% 7 76.45 1020.5
01 18:56 N 17 16.09 Partly Cloudy SCT065 9.4 -5 10.6 7.8 36% 7 76.43 1020.5
01 17:56 N 15 16.09 Partly Cloudy SCT060 9.4 -4.4 38% 7 76.43 1020.5
01 16:56 N 19 G 30 16.09 Partly Cloudy SCT060 10 -3.9 38% 8 76.43 1020.2
01 15:56 N 22 G 31 16.09 Mostly Cloudy BKN055 10 -3.3 39% 7 76.43 1020.2
01 14:56 N 22 16.09 Mostly Cloudy BKN055 8.9 -3.3 42% 6 76.45 1020.5
01 13:56 Vrbl 11 G 28 16.09 Mostly Cloudy BKN050 8.3 -4.4 41% 7 76.45 1020.6
01 12:56 N 19 16.09 Mostly Cloudy BKN050 8.3 -2.8 8.3 0.6 46% 6 76.45 1020.7
01 11:56 N 20 G 30 16.09 Overcast OVC045 7.2 -2.8 49% 4 76.45 1020.7
01 10:56 N 20 16.09 Partly Cloudy FEW038 SCT050 6.7 -2.2 53% 3 76.45 1020.8
01 09:56 N 26 16.09 Overcast OVC048 5.6 -1.7 60% 2 76.45 1020.7
01 08:56 N 26 16.09 Mostly Cloudy BKN048 4.4 -0.6 70% 0 76.43 1020.4
01 07:56 N 24 16.09 Fair CLR 2.8 -0.6 79% -2 76.4 1019.9
01 06:56 N 17 16.09 A Few Clouds FEW055 0.6 -1.1 4.4 0 89% -4 76.35 1019.4
01 05:56 NW 17 16.09 Fair CLR 0.6 0 96% -4 76.33 1019.1
01 04:56 NW 15 16.09 Fair CLR 2.2 1.7 97% -1 76.3 1018.7
01 03:56 N 13 16.09 Overcast FEW070 OVC080 3.9 2.8 93% 1 76.3 1018.4
01 02:56 NW 7 16.09 Overcast OVC070 4.4 3.9 97% 3 76.3 1018.5
01 01:56 NW 9 16.09 Overcast FEW037 BKN060 OVC080 4.4 3.3 93% 2 76.33 1018.7
Date Time (cdt) Wind (kph) Vis. (km) Weather Sky Cond. Air Dwpt Max. Min. Relative Humidity Wind Chill (°C) Heat Index (°C) altimeter (cm) sea level (mb) 1 hr 3 hr 6 hr
6 hour
Temperature (ºC) Pressure Precipitation (cm)